Flinterduin — PEBT — position and weather

sailwx.info

Track history (hours):
 
Tides and Currents Weather Stations Pressure Air Temp Water Temp Dewpoint Dewpoint Depression Visibility Wind Speed Wind Dir Waves Ship Positions

Flinterduin

Last reported at 2015-Apr-27 22:10 UTC. Time now 2015-Apr-28 14:30 UTC.
Position N 36°26' E 014°43'.

Length 112 m; beam 15 m.

Type: Cargo ship. MMSI: 246484000.

Date/timePositionNaut miles runAvg speedWind from/ knotsBaromVisibWave heightAir tempDewpointWater temp
2015-Apr-27 22:10N 36°26' E 014°43'812.0
2015-Apr-27 21:33N 36°28' E 014°33'1212.0
2015-Apr-27 20:33N 36°32' E 014°19'1312.5
2015-Apr-27 19:33N 36°36' E 014°05'36412.1
2015-Apr-26 13:25N 37°17' E 006°33'1212.9
2015-Apr-26 12:29N 37°16' E 006°18'1212.6
2015-Apr-26 11:31N 37°15' E 006°02'9412.8
2015-Apr-26 04:11N 37°08' E 004°05'913.6
2015-Apr-26 03:33N 37°07' E 003°55'1513.6
2015-Apr-26 02:25N 37°05' E 003°35'2813.6
2015-Apr-26 00:22N 37°02' E 003°01'1113.6
2015-Apr-25 23:33N 36°60' E 002°47'1313.4
2015-Apr-25 22:33N 36°57' E 002°31'1313.5
2015-Apr-25 21:33N 36°55' E 002°14'1313.1
2015-Apr-25 20:33N 36°53' E 001°58'1313.1
2015-Apr-25 19:33N 36°51' E 001°42'1313.0
2015-Apr-25 18:33N 36°49' E 001°26'1313.4
2015-Apr-25 17:33N 36°47' E 001°09'1313.5
2015-Apr-25 16:33N 36°45' E 000°52'1313.5
2015-Apr-25 15:33N 36°43' E 000°36'1313.2
2015-Apr-25 14:33N 36°41' E 000°19'1312.6
2015-Apr-25 13:33N 36°39' E 000°04'1512.3
2015-Apr-25 12:22N 36°36' W 000°14'1012.4
2015-Apr-25 11:33N 36°35' W 000°27'1412.4
2015-Apr-25 10:22N 36°32' W 000°44'1012.2
2015-Apr-25 09:32N 36°31' W 000°57'1212.5
2015-Apr-25 08:32N 36°29' W 001°12'1212.4
2015-Apr-25 07:33N 36°27' W 001°27'1110.0
2015-Apr-25 06:28N 36°26' W 001°41'1011.1
2015-Apr-25 05:32N 36°24' W 001°53'1212.3
2015-Apr-25 04:32N 36°22' W 002°09'1212.6
2015-Apr-25 03:33N 36°22' W 002°24'1312.5
2015-Apr-25 02:33N 36°26' W 002°39'1312.7
2015-Apr-25 01:31N 36°30' W 002°54'1412.8
2015-Apr-25 00:23N 36°35' W 003°11'111 2.3
2015-Apr-22 23:32N 37°15' W 001°01'1414.1
2015-Apr-22 22:33N 37°24' W 000°48'1414.2
2015-Apr-22 21:33N 37°34' W 000°35'1414.2
2015-Apr-22 20:33N 37°45' W 000°24'1414.4
2015-Apr-22 19:33N 37°58' W 000°16'1414.0
2015-Apr-22 18:33N 38°10' W 000°06'1414.2
2015-Apr-22 17:33N 38°21' E 000°04'10014.3
2015-Apr-22 10:33N 39°43' E 001°19'1514.5
2015-Apr-22 09:33N 39°54' E 001°31'1414.2
2015-Apr-22 08:33N 40°06' E 001°41'1414.0
2015-Apr-22 07:33N 40°17' E 001°52'1414.1
2015-Apr-22 06:33N 40°28' E 002°03'1414.1
2015-Apr-22 05:33N 40°40' E 002°15'1414.1
2015-Apr-22 04:33N 40°51' E 002°26'1414.1
2015-Apr-22 03:33N 41°02' E 002°37'1414.1
2015-Apr-22 02:32N 41°14' E 002°48'1414.4
2015-Apr-22 01:32N 41°25' E 002°59'1414.2
2015-Apr-22 00:33N 41°37' E 003°10'1514.1
2015-Apr-21 23:27N 41°49' E 003°23'1513.9
2015-Apr-21 22:22N 42°03' E 003°30'1213.9
2015-Apr-21 21:30N 42°15' E 003°33'1612.8
2015-Apr-21 20:16N 42°31' E 003°35'913.1
2015-Apr-21 19:33N 42°40' E 003°36'1313.4
2015-Apr-21 18:33N 42°53' E 003°38'1413.7
2015-Apr-21 17:33N 43°07' E 003°41'1413.7
2015-Apr-21 16:33N 43°20' E 003°43'1 1.1
2015-Apr-21 15:20N 43°22' E 003°43'0 0.0
2015-Apr-21 12:32N 43°22' E 003°43'0 0.0
2015-Apr-21 11:31N 43°22' E 003°43'0 0.0
2015-Apr-21 10:27N 43°22' E 003°43'0 0.0
2015-Apr-21 07:32N 43°22' E 003°43'0 0.0
2015-Apr-21 05:28N 43°22' E 003°43'0 0.0
2015-Apr-20 19:20N 43°22' E 003°43'0 0.0
2015-Apr-20 17:32N 43°22' E 003°43'0 0.0
2015-Apr-20 11:31N 43°22' E 003°43'0 0.0
2015-Apr-20 10:10N 43°22' E 003°43'0 0.0
2015-Apr-20 08:04N 43°22' E 003°43'0 0.0
2015-Apr-19 18:21N 43°22' E 003°43'0 0.0
2015-Apr-19 16:30N 43°22' E 003°43'0 0.0
2015-Apr-19 15:23N 43°22' E 003°43'0 0.0
2015-Apr-19 14:24N 43°22' E 003°43'0 0.0
2015-Apr-19 13:24N 43°22' E 003°43'0 0.0
2015-Apr-19 12:06N 43°22' E 003°43'0 0.0
2015-Apr-19 11:30N 43°22' E 003°43'0 0.0
2015-Apr-19 10:31N 43°22' E 003°43'0 0.1
2015-Apr-19 09:18N 43°22' E 003°44'0 0.1
2015-Apr-19 08:22N 43°22' E 003°44'0 0.0
2015-Apr-19 07:31N 43°22' E 003°44'0 0.0
2015-Apr-18 22:18N 43°22' E 003°44'0 0.0
2015-Apr-18 17:27N 43°22' E 003°44'0 0.0
2015-Apr-18 16:30N 43°22' E 003°44'0 0.0
2015-Apr-18 15:11N 43°22' E 003°43'0 0.0
2015-Apr-18 14:19N 43°22' E 003°43'0 0.0
2015-Apr-18 12:27N 43°22' E 003°43'2 0.2
2015-Apr-18 00:25N 43°24' E 003°42'0 0.0
2015-Apr-17 22:20N 43°24' E 003°42'  
Track history (hours):
 
Tides and Currents Weather Stations Pressure Air Temp Water Temp Dewpoint Dewpoint Depression Visibility Wind Speed Wind Dir Waves Ship Positions

Flinterduin

Last reported at 2015-Apr-27 22:10 UTC. Time now 2015-Apr-28 14:30 UTC.
Position N 36°26' E 014°43'.

Length 112 m; beam 15 m.

Type: Cargo ship. MMSI: 246484000.

Date/timePositionNaut miles runAvg speedWind from/ knotsBaromVisibWave heightAir tempDewpointWater temp
2015-Apr-27 22:10N 36°26' E 014°43'812.0
2015-Apr-27 21:33N 36°28' E 014°33'1212.0
2015-Apr-27 20:33N 36°32' E 014°19'1312.5
2015-Apr-27 19:33N 36°36' E 014°05'36412.1
2015-Apr-26 13:25N 37°17' E 006°33'1212.9
2015-Apr-26 12:29N 37°16' E 006°18'1212.6
2015-Apr-26 11:31N 37°15' E 006°02'9412.8
2015-Apr-26 04:11N 37°08' E 004°05'913.6
2015-Apr-26 03:33N 37°07' E 003°55'1513.6
2015-Apr-26 02:25N 37°05' E 003°35'2813.6
2015-Apr-26 00:22N 37°02' E 003°01'1113.6
2015-Apr-25 23:33N 36°60' E 002°47'1313.4
2015-Apr-25 22:33N 36°57' E 002°31'1313.5
2015-Apr-25 21:33N 36°55' E 002°14'1313.1
2015-Apr-25 20:33N 36°53' E 001°58'1313.1
2015-Apr-25 19:33N 36°51' E 001°42'1313.0
2015-Apr-25 18:33N 36°49' E 001°26'1313.4
2015-Apr-25 17:33N 36°47' E 001°09'1313.5
2015-Apr-25 16:33N 36°45' E 000°52'1313.5
2015-Apr-25 15:33N 36°43' E 000°36'1313.2
2015-Apr-25 14:33N 36°41' E 000°19'1312.6
2015-Apr-25 13:33N 36°39' E 000°04'1512.3
2015-Apr-25 12:22N 36°36' W 000°14'1012.4
2015-Apr-25 11:33N 36°35' W 000°27'1412.4
2015-Apr-25 10:22N 36°32' W 000°44'1012.2
2015-Apr-25 09:32N 36°31' W 000°57'1212.5
2015-Apr-25 08:32N 36°29' W 001°12'1212.4
2015-Apr-25 07:33N 36°27' W 001°27'1110.0
2015-Apr-25 06:28N 36°26' W 001°41'1011.1
2015-Apr-25 05:32N 36°24' W 001°53'1212.3
2015-Apr-25 04:32N 36°22' W 002°09'1212.6
2015-Apr-25 03:33N 36°22' W 002°24'1312.5
2015-Apr-25 02:33N 36°26' W 002°39'1312.7
2015-Apr-25 01:31N 36°30' W 002°54'1412.8
2015-Apr-25 00:23N 36°35' W 003°11'111 2.3
2015-Apr-22 23:32N 37°15' W 001°01'1414.1
2015-Apr-22 22:33N 37°24' W 000°48'1414.2
2015-Apr-22 21:33N 37°34' W 000°35'1414.2
2015-Apr-22 20:33N 37°45' W 000°24'1414.4
2015-Apr-22 19:33N 37°58' W 000°16'1414.0
2015-Apr-22 18:33N 38°10' W 000°06'1414.2
2015-Apr-22 17:33N 38°21' E 000°04'10014.3
2015-Apr-22 10:33N 39°43' E 001°19'1514.5
2015-Apr-22 09:33N 39°54' E 001°31'1414.2
2015-Apr-22 08:33N 40°06' E 001°41'1414.0
2015-Apr-22 07:33N 40°17' E 001°52'1414.1
2015-Apr-22 06:33N 40°28' E 002°03'1414.1
2015-Apr-22 05:33N 40°40' E 002°15'1414.1
2015-Apr-22 04:33N 40°51' E 002°26'1414.1
2015-Apr-22 03:33N 41°02' E 002°37'1414.1
2015-Apr-22 02:32N 41°14' E 002°48'1414.4
2015-Apr-22 01:32N 41°25' E 002°59'1414.2
2015-Apr-22 00:33N 41°37' E 003°10'1514.1
2015-Apr-21 23:27N 41°49' E 003°23'1513.9
2015-Apr-21 22:22N 42°03' E 003°30'1213.9
2015-Apr-21 21:30N 42°15' E 003°33'1612.8
2015-Apr-21 20:16N 42°31' E 003°35'913.1
2015-Apr-21 19:33N 42°40' E 003°36'1313.4
2015-Apr-21 18:33N 42°53' E 003°38'1413.7
2015-Apr-21 17:33N 43°07' E 003°41'1413.7
2015-Apr-21 16:33N 43°20' E 003°43'1 1.1
2015-Apr-21 15:20N 43°22' E 003°43'0 0.0
2015-Apr-21 12:32N 43°22' E 003°43'0 0.0
2015-Apr-21 11:31N 43°22' E 003°43'0 0.0
2015-Apr-21 10:27N 43°22' E 003°43'0 0.0
2015-Apr-21 07:32N 43°22' E 003°43'0 0.0
2015-Apr-21 05:28N 43°22' E 003°43'0 0.0
2015-Apr-20 19:20N 43°22' E 003°43'0 0.0
2015-Apr-20 17:32N 43°22' E 003°43'0 0.0
2015-Apr-20 11:31N 43°22' E 003°43'0 0.0
2015-Apr-20 10:10N 43°22' E 003°43'0 0.0
2015-Apr-20 08:04N 43°22' E 003°43'0 0.0
2015-Apr-19 18:21N 43°22' E 003°43'0 0.0
2015-Apr-19 16:30N 43°22' E 003°43'0 0.0
2015-Apr-19 15:23N 43°22' E 003°43'0 0.0
2015-Apr-19 14:24N 43°22' E 003°43'0 0.0
2015-Apr-19 13:24N 43°22' E 003°43'0 0.0
2015-Apr-19 12:06N 43°22' E 003°43'0 0.0
2015-Apr-19 11:30N 43°22' E 003°43'0 0.0
2015-Apr-19 10:31N 43°22' E 003°43'0 0.1
2015-Apr-19 09:18N 43°22' E 003°44'0 0.1
2015-Apr-19 08:22N 43°22' E 003°44'0 0.0
2015-Apr-19 07:31N 43°22' E 003°44'0 0.0
2015-Apr-18 22:18N 43°22' E 003°44'0 0.0
2015-Apr-18 17:27N 43°22' E 003°44'0 0.0
2015-Apr-18 16:30N 43°22' E 003°44'0 0.0
2015-Apr-18 15:11N 43°22' E 003°43'0 0.0
2015-Apr-18 14:19N 43°22' E 003°43'0 0.0
2015-Apr-18 12:27N 43°22' E 003°43'2 0.2
2015-Apr-18 00:25N 43°24' E 003°42'0 0.0
2015-Apr-17 22:20N 43°24' E 003°42'  

Dump ship's entire track history